createdAt,value
2023-05-03T00:00:10.277Z,10.40
2023-05-03T00:02:40.284Z,10.40
2023-05-03T00:05:12.993Z,10.30
2023-05-03T00:07:43.778Z,10.30
2023-05-03T00:10:13.230Z,10.20
2023-05-03T00:12:40.656Z,10.20
2023-05-03T00:15:07.832Z,10.20
2023-05-03T00:17:34.840Z,10.20
2023-05-03T00:20:02.128Z,10.20
2023-05-03T00:22:28.927Z,10.10
2023-05-03T00:24:56.428Z,10.10
2023-05-03T00:27:24.358Z,10.00
2023-05-03T00:29:54.785Z,10.00
2023-05-03T00:32:24.625Z,10.00
2023-05-03T00:34:56.066Z,9.90
2023-05-03T00:37:26.964Z,9.90
2023-05-03T00:39:53.912Z,9.90
2023-05-03T00:42:20.799Z,9.90
2023-05-03T00:44:47.475Z,9.90
2023-05-03T00:47:15.632Z,9.80
2023-05-03T00:49:42.796Z,9.80
2023-05-03T00:52:10.670Z,9.80
2023-05-03T00:54:37.895Z,9.80
2023-05-03T00:57:05.656Z,9.70
2023-05-03T00:59:34.452Z,9.60
2023-05-03T01:02:01.565Z,9.70
2023-05-03T01:04:28.740Z,9.60
2023-05-03T01:07:23.099Z,9.60
2023-05-03T01:09:56.093Z,9.60
2023-05-03T01:12:34.822Z,9.60
2023-05-03T01:15:16.890Z,9.50
2023-05-03T01:17:51.609Z,9.40
2023-05-03T01:20:26.256Z,9.40
2023-05-03T01:22:58.722Z,9.40
2023-05-03T01:25:28.661Z,9.40
2023-05-03T01:27:55.387Z,9.40
2023-05-03T01:30:25.148Z,9.30
2023-05-03T01:33:03.831Z,9.40
2023-05-03T01:35:49.487Z,9.30
2023-05-03T01:38:17.799Z,9.30
2023-05-03T01:40:50.948Z,9.30
2023-05-03T01:43:18.979Z,9.30
2023-05-03T01:45:46.083Z,9.30
2023-05-03T01:48:16.121Z,9.30
2023-05-03T01:50:42.927Z,9.20
2023-05-03T01:53:09.607Z,9.20
2023-05-03T01:55:36.346Z,9.10
2023-05-03T01:58:03.123Z,9.10
2023-05-03T02:00:29.955Z,9.10
2023-05-03T02:02:57.017Z,9.10
2023-05-03T02:05:23.849Z,9.10
2023-05-03T02:07:50.515Z,9.00
2023-05-03T02:10:17.450Z,9.00
2023-05-03T02:12:44.864Z,9.00
2023-05-03T02:15:12.717Z,9.10
2023-05-03T02:17:40.299Z,9.00
2023-05-03T02:20:09.793Z,8.90
2023-05-03T02:22:36.940Z,9.00
2023-05-03T02:25:03.941Z,8.90
2023-05-03T02:27:30.725Z,9.00
2023-05-03T02:29:57.381Z,8.90
2023-05-03T02:32:24.160Z,8.90
2023-05-03T02:34:50.824Z,8.90
2023-05-03T02:37:17.480Z,8.80
2023-05-03T02:39:44.249Z,8.80
2023-05-03T02:42:10.896Z,8.80
2023-05-03T02:44:37.559Z,8.80
2023-05-03T02:47:04.284Z,8.80
2023-05-03T02:49:31.144Z,8.80
2023-05-03T02:51:58.031Z,8.70
2023-05-03T02:54:24.804Z,8.70
2023-05-03T02:56:51.609Z,8.70
2023-05-03T02:59:18.314Z,8.70
2023-05-03T03:01:46.786Z,8.70
2023-05-03T03:04:13.642Z,8.70
2023-05-03T03:06:40.454Z,8.70
2023-05-03T03:09:07.347Z,8.60
2023-05-03T03:11:34.560Z,8.60
2023-05-03T03:14:01.354Z,8.60
2023-05-03T03:16:28.154Z,8.60
2023-05-03T03:18:55.184Z,8.50
2023-05-03T03:21:21.980Z,8.60
2023-05-03T03:23:48.748Z,8.60
2023-05-03T03:26:15.674Z,8.50
2023-05-03T03:28:42.406Z,8.50
2023-05-03T03:31:09.281Z,8.50
2023-05-03T03:33:36.259Z,8.50
2023-05-03T03:36:03.407Z,8.50
2023-05-03T03:38:30.206Z,8.50
2023-05-03T03:40:56.885Z,8.50
2023-05-03T03:43:23.582Z,8.40
2023-05-03T03:45:50.435Z,8.40
2023-05-03T03:48:17.131Z,8.40
2023-05-03T03:50:44.010Z,8.30
2023-05-03T03:53:11.627Z,8.30
2023-05-03T03:55:38.731Z,8.30
2023-05-03T03:58:06.160Z,8.30
2023-05-03T04:00:34.488Z,8.30
2023-05-03T04:03:01.325Z,8.30
2023-05-03T04:05:28.111Z,8.30
2023-05-03T04:07:54.877Z,8.40
2023-05-03T04:10:21.598Z,8.40
2023-05-03T04:12:48.249Z,8.40
2023-05-03T04:15:14.987Z,8.40
2023-05-03T04:17:41.856Z,8.50
2023-05-03T04:20:11.361Z,8.60
2023-05-03T04:22:39.984Z,8.60
2023-05-03T04:25:08.756Z,8.60
2023-05-03T04:27:35.486Z,8.70
2023-05-03T04:30:02.750Z,8.70
2023-05-03T04:32:29.535Z,8.80
2023-05-03T04:34:56.219Z,8.80
2023-05-03T04:37:23.418Z,8.80
2023-05-03T04:39:50.089Z,8.80
2023-05-03T04:42:16.727Z,8.80
2023-05-03T04:44:43.476Z,8.90
2023-05-03T04:47:10.405Z,8.90
2023-05-03T04:49:37.248Z,8.90
2023-05-03T04:52:04.068Z,9.00
2023-05-03T04:54:31.813Z,9.00
2023-05-03T04:56:58.428Z,8.90
2023-05-03T04:59:25.115Z,9.00
2023-05-03T05:01:51.901Z,9.00
2023-05-03T05:04:18.987Z,9.10
2023-05-03T05:06:45.727Z,9.10
2023-05-03T05:09:26.406Z,9.20
2023-05-03T05:11:56.120Z,9.20
2023-05-03T05:14:23.961Z,9.30
2023-05-03T05:16:50.986Z,9.40
2023-05-03T05:19:17.725Z,9.40
2023-05-03T05:21:44.431Z,9.40
2023-05-03T05:24:11.084Z,9.50
2023-05-03T05:26:38.175Z,9.50
2023-05-03T05:29:05.408Z,9.60
2023-05-03T05:31:32.318Z,9.60
2023-05-03T05:33:59.125Z,9.70
2023-05-03T05:36:25.937Z,9.80
2023-05-03T05:38:52.702Z,9.90
2023-05-03T05:41:19.538Z,9.90
2023-05-03T05:43:46.221Z,9.90
2023-05-03T05:46:12.963Z,10.00
2023-05-03T05:48:41.365Z,10.10
2023-05-03T05:51:08.106Z,10.20
2023-05-03T05:53:34.757Z,10.20
2023-05-03T05:56:01.419Z,10.30
2023-05-03T05:58:28.145Z,10.40
2023-05-03T06:01:01.465Z,10.50
2023-05-03T06:03:28.178Z,10.50
2023-05-03T06:05:54.953Z,10.60
2023-05-03T06:08:21.806Z,10.70
2023-05-03T06:10:48.466Z,10.70
2023-05-03T06:13:15.147Z,10.70
2023-05-03T06:15:41.793Z,10.80
2023-05-03T06:18:08.933Z,10.80
2023-05-03T06:20:35.641Z,10.80
2023-05-03T06:23:02.324Z,10.90
2023-05-03T06:25:28.972Z,11.00
2023-05-03T06:27:55.699Z,11.00
2023-05-03T06:30:23.678Z,11.00
2023-05-03T06:32:50.501Z,11.10
2023-05-03T06:35:19.392Z,11.20
2023-05-03T06:37:46.144Z,11.30
2023-05-03T06:40:12.943Z,11.30
2023-05-03T06:42:39.635Z,11.40
2023-05-03T06:45:07.558Z,11.40
2023-05-03T06:47:34.193Z,11.50
2023-05-03T06:50:00.984Z,11.60
2023-05-03T06:52:27.717Z,11.70
2023-05-03T06:54:54.409Z,11.80
2023-05-03T06:57:21.349Z,11.80
2023-05-03T06:59:47.969Z,11.70
2023-05-03T07:02:14.691Z,11.70
2023-05-03T07:04:41.404Z,11.60
2023-05-03T07:07:08.181Z,11.60
2023-05-03T07:09:42.810Z,11.60
2023-05-03T07:12:10.970Z,11.70
2023-05-03T07:14:39.144Z,11.80
2023-05-03T07:17:05.924Z,11.90
2023-05-03T07:19:32.654Z,11.80
2023-05-03T07:21:59.459Z,11.80
2023-05-03T07:24:26.304Z,12.00
2023-05-03T07:26:53.730Z,12.10
2023-05-03T07:29:21.001Z,12.10
2023-05-03T07:31:47.787Z,12.20
2023-05-03T07:34:14.464Z,12.20
2023-05-03T07:36:41.225Z,12.20
2023-05-03T07:39:08.490Z,12.20
2023-05-03T07:41:35.371Z,12.20
2023-05-03T07:44:02.080Z,12.20
2023-05-03T07:46:28.874Z,12.30
2023-05-03T07:48:55.548Z,12.60
2023-05-03T07:51:22.215Z,12.90
2023-05-03T07:53:48.875Z,13.00
2023-05-03T07:56:15.647Z,13.20
2023-05-03T07:58:43.660Z,13.30
2023-05-03T08:01:11.809Z,13.60
2023-05-03T08:03:38.998Z,13.90
2023-05-03T08:06:06.077Z,14.00
2023-05-03T08:08:33.914Z,14.10
2023-05-03T08:11:00.549Z,14.20
2023-05-03T08:13:27.222Z,14.20
2023-05-03T08:15:53.923Z,14.20
2023-05-03T08:18:23.584Z,14.40
2023-05-03T08:20:50.611Z,14.70
2023-05-03T08:23:17.761Z,15.00
2023-05-03T08:25:45.334Z,15.50
2023-05-03T08:28:12.020Z,15.60
2023-05-03T08:30:38.940Z,15.60
2023-05-03T08:33:06.039Z,15.60
2023-05-03T08:35:32.866Z,15.60
2023-05-03T08:37:59.583Z,15.80
2023-05-03T08:40:28.072Z,15.90
2023-05-03T08:42:57.218Z,16.00
2023-05-03T08:45:24.152Z,15.80
2023-05-03T08:47:55.142Z,15.90
2023-05-03T08:50:22.788Z,15.90
2023-05-03T08:52:49.457Z,16.00
2023-05-03T08:55:16.856Z,16.20
2023-05-03T08:57:43.637Z,16.40
2023-05-03T09:00:11.164Z,16.30
2023-05-03T09:02:41.460Z,16.50
2023-05-03T09:05:17.309Z,16.80
2023-05-03T09:08:04.210Z,17.00
2023-05-03T09:10:32.288Z,17.00
2023-05-03T09:13:02.790Z,17.10
2023-05-03T09:15:30.917Z,17.10
2023-05-03T09:18:09.791Z,16.90
2023-05-03T09:20:38.850Z,16.90
2023-05-03T09:23:07.737Z,17.10
2023-05-03T09:25:46.401Z,17.30
2023-05-03T09:28:14.413Z,17.30
2023-05-03T09:30:42.099Z,17.40
2023-05-03T09:33:09.014Z,17.70
2023-05-03T09:35:35.806Z,18.00
2023-05-03T09:38:02.482Z,18.60
2023-05-03T09:40:29.534Z,19.00
2023-05-03T09:43:10.300Z,18.80
2023-05-03T09:45:38.405Z,18.90
2023-05-03T09:48:07.205Z,19.10
2023-05-03T09:50:36.259Z,19.20
2023-05-03T09:53:05.102Z,19.30
2023-05-03T09:55:36.806Z,19.50
2023-05-03T09:58:06.742Z,19.40
2023-05-03T10:00:37.329Z,19.40
2023-05-03T10:03:12.259Z,19.30
2023-05-03T10:05:52.243Z,19.30
2023-05-03T10:08:22.710Z,19.30
2023-05-03T10:10:54.361Z,19.20
2023-05-03T10:13:22.860Z,19.30
2023-05-03T10:15:58.975Z,19.30
2023-05-03T10:18:29.871Z,19.20
2023-05-03T10:21:12.305Z,19.20
2023-05-03T10:24:15.892Z,18.90
2023-05-03T10:26:49.696Z,18.90
2023-05-03T10:29:34.800Z,18.90
2023-05-03T10:32:05.363Z,18.60
2023-05-03T10:34:33.396Z,18.60
2023-05-03T10:37:09.465Z,18.70
2023-05-03T10:39:36.520Z,18.80
2023-05-03T10:42:07.699Z,19.00
2023-05-03T10:44:51.248Z,19.00
2023-05-03T10:47:19.873Z,19.10
2023-05-03T10:49:46.563Z,19.20
2023-05-03T10:52:35.338Z,19.20
2023-05-03T10:55:02.935Z,19.10
2023-05-03T10:57:32.070Z,19.00
2023-05-03T10:59:59.372Z,19.00
2023-05-03T11:02:32.627Z,19.00
2023-05-03T11:05:05.260Z,19.00
2023-05-03T11:07:32.097Z,18.90
2023-05-03T11:09:58.810Z,18.80
2023-05-03T11:12:25.453Z,18.70
2023-05-03T11:14:52.114Z,18.60
2023-05-03T11:17:18.965Z,18.60
2023-05-03T11:19:46.380Z,18.70
2023-05-03T11:22:13.131Z,18.80
2023-05-03T11:24:39.749Z,18.80
2023-05-03T11:27:07.949Z,18.80
2023-05-03T11:29:35.473Z,18.90
2023-05-03T11:32:02.266Z,18.90
2023-05-03T11:34:28.946Z,19.00
2023-05-03T11:36:57.502Z,18.90
2023-05-03T11:39:24.149Z,18.90
2023-05-03T11:42:04.417Z,19.00
2023-05-03T11:44:31.386Z,18.90
2023-05-03T11:46:58.631Z,18.90
2023-05-03T11:49:25.416Z,18.80
2023-05-03T11:51:54.674Z,18.60
2023-05-03T11:54:27.066Z,18.60
2023-05-03T11:56:57.708Z,18.60
2023-05-03T11:59:38.989Z,18.70
2023-05-03T12:02:07.848Z,18.70
2023-05-03T12:04:36.481Z,18.70
2023-05-03T12:07:05.028Z,18.70
2023-05-03T12:09:32.509Z,18.60
2023-05-03T12:12:02.409Z,18.50
2023-05-03T12:14:50.492Z,18.50
2023-05-03T12:17:38.321Z,18.50
2023-05-03T12:22:57.949Z,18.70
2023-05-03T12:25:27.259Z,18.80
2023-05-03T12:28:17.754Z,18.90
2023-05-03T12:30:46.028Z,18.90
2023-05-03T12:33:15.593Z,18.90
2023-05-03T12:35:46.962Z,18.80
2023-05-03T12:38:16.721Z,18.90
2023-05-03T12:40:48.037Z,18.80
2023-05-03T12:43:15.006Z,18.90
2023-05-03T12:45:46.372Z,18.80
2023-05-03T12:48:14.051Z,18.80
2023-05-03T12:50:44.929Z,18.70
2023-05-03T12:53:16.674Z,18.80
2023-05-03T12:55:44.919Z,18.80
2023-05-03T12:58:46.054Z,18.70
2023-05-03T13:03:33.268Z,18.80
2023-05-03T13:06:02.443Z,18.80
2023-05-03T13:08:36.763Z,18.70
2023-05-03T13:11:04.466Z,18.70
2023-05-03T13:13:31.709Z,18.60
2023-05-03T13:15:59.856Z,18.50
2023-05-03T13:18:26.893Z,18.50
2023-05-03T13:20:53.785Z,18.50
2023-05-03T13:23:20.567Z,18.40
2023-05-03T13:25:47.220Z,18.40
2023-05-03T13:28:13.884Z,18.50
2023-05-03T13:30:40.673Z,18.50
2023-05-03T13:33:08.800Z,18.50
2023-05-03T13:35:35.605Z,18.40
2023-05-03T13:38:02.333Z,18.40
2023-05-03T13:40:29.212Z,18.30
2023-05-03T13:42:55.850Z,18.30
2023-05-03T13:45:22.483Z,18.30
2023-05-03T13:48:12.027Z,18.30
2023-05-03T13:50:35.710Z,18.30
2023-05-03T13:53:02.403Z,18.20
2023-05-03T13:55:29.090Z,18.20
2023-05-03T13:57:56.065Z,18.20
2023-05-03T14:00:23.005Z,18.20
2023-05-03T14:02:51.220Z,18.30
2023-05-03T14:05:19.725Z,18.20
2023-05-03T14:07:46.390Z,18.20
2023-05-03T14:10:13.244Z,18.10
2023-05-03T14:12:39.957Z,18.20
2023-05-03T14:15:07.561Z,18.20
2023-05-03T14:17:35.083Z,18.10
2023-05-03T14:20:02.280Z,18.10
2023-05-03T14:22:29.224Z,18.10
2023-05-03T14:24:55.913Z,18.10
2023-05-03T14:27:22.593Z,18.20
2023-05-03T14:29:49.326Z,18.20
2023-05-03T14:32:16.116Z,18.20
2023-05-03T14:34:46.737Z,18.20
2023-05-03T14:37:13.412Z,18.20
2023-05-03T14:39:40.074Z,18.20
2023-05-03T14:42:06.780Z,18.20
2023-05-03T14:44:33.437Z,18.20
2023-05-03T14:47:00.263Z,18.20
2023-05-03T14:49:27.202Z,18.20
2023-05-03T14:51:53.838Z,18.20
2023-05-03T14:54:22.939Z,18.30
2023-05-03T14:56:49.956Z,18.20
2023-05-03T14:59:16.604Z,18.20
2023-05-03T15:01:43.434Z,18.20
2023-05-03T15:04:10.844Z,18.10
2023-05-03T15:06:39.478Z,18.20
2023-05-03T15:09:08.256Z,18.30
2023-05-03T15:11:34.955Z,18.30
2023-05-03T15:14:01.642Z,18.30
2023-05-03T15:16:28.457Z,18.20
2023-05-03T15:18:55.494Z,18.20
2023-05-03T15:21:22.361Z,18.20
2023-05-03T15:23:49.512Z,18.30
2023-05-03T15:26:16.686Z,18.30
2023-05-03T15:28:43.397Z,18.30
2023-05-03T15:31:12.790Z,18.30
2023-05-03T15:33:44.595Z,18.30
2023-05-03T15:36:12.892Z,18.30
2023-05-03T15:38:40.920Z,18.30
2023-05-03T15:41:08.013Z,18.30
2023-05-03T15:43:34.996Z,18.30
2023-05-03T15:46:02.035Z,18.20
2023-05-03T15:48:28.809Z,18.20
2023-05-03T15:50:55.690Z,18.30
2023-05-03T15:53:22.372Z,18.20
2023-05-03T15:55:49.598Z,18.20
2023-05-03T15:58:18.126Z,18.20
2023-05-03T16:00:44.789Z,18.20
2023-05-03T16:03:11.451Z,18.20
2023-05-03T16:05:38.148Z,18.20
2023-05-03T16:08:06.557Z,18.10
2023-05-03T16:10:34.363Z,18.10
2023-05-03T16:13:01.419Z,18.10
2023-05-03T16:15:28.163Z,18.00
2023-05-03T16:17:54.896Z,18.00
2023-05-03T16:20:21.573Z,18.00
2023-05-03T16:22:50.161Z,17.90
2023-05-03T16:25:18.637Z,17.90
2023-05-03T16:27:45.346Z,17.90
2023-05-03T16:30:12.505Z,17.90
2023-05-03T16:32:40.018Z,17.80
2023-05-03T16:35:06.997Z,17.80
2023-05-03T16:37:37.063Z,17.80
2023-05-03T16:40:11.485Z,17.80
2023-05-03T16:42:39.326Z,17.80
2023-05-03T16:45:10.679Z,17.80
2023-05-03T16:47:38.021Z,17.80
2023-05-03T16:50:08.134Z,17.80
2023-05-03T16:52:40.212Z,17.70
2023-05-03T16:55:07.878Z,17.70
2023-05-03T16:57:34.696Z,17.70
2023-05-03T17:00:08.317Z,17.70
2023-05-03T17:02:38.987Z,17.70
2023-05-03T17:05:08.115Z,17.60
2023-05-03T17:07:35.608Z,17.60
2023-05-03T17:10:03.873Z,17.60
2023-05-03T17:12:31.081Z,17.50
2023-05-03T17:14:57.911Z,17.50
2023-05-03T17:17:24.601Z,17.50
2023-05-03T17:19:51.368Z,17.50
2023-05-03T17:22:18.045Z,17.40
2023-05-03T17:24:44.647Z,17.40
2023-05-03T17:27:11.325Z,17.30
2023-05-03T17:29:38.126Z,17.30
2023-05-03T17:32:05.154Z,17.30
2023-05-03T17:34:32.078Z,17.20
2023-05-03T17:36:59.311Z,17.20
2023-05-03T17:39:26.074Z,17.20
2023-05-03T17:41:53.401Z,17.10
2023-05-03T17:44:20.063Z,17.10
2023-05-03T17:46:46.724Z,17.00
2023-05-03T17:49:13.398Z,17.00
2023-05-03T17:51:40.076Z,16.90
2023-05-03T17:54:06.750Z,16.90
2023-05-03T17:56:33.389Z,16.90
2023-05-03T17:59:00.078Z,16.80
2023-05-03T18:01:27.593Z,16.80
2023-05-03T18:03:54.489Z,16.70
2023-05-03T18:06:21.297Z,16.70
2023-05-03T18:08:48.290Z,16.70
2023-05-03T18:11:14.952Z,16.60
2023-05-03T18:13:41.844Z,16.60
2023-05-03T18:16:08.920Z,16.60
2023-05-03T18:18:35.901Z,16.50
2023-05-03T18:21:03.945Z,16.50
2023-05-03T18:23:35.121Z,16.40
2023-05-03T18:26:01.882Z,16.40
2023-05-03T18:28:28.548Z,16.40
2023-05-03T18:30:58.363Z,16.30
2023-05-03T18:33:25.126Z,16.30
2023-05-03T18:35:52.801Z,16.20
2023-05-03T18:38:21.418Z,16.10
2023-05-03T18:40:48.868Z,16.10
2023-05-03T18:43:15.593Z,16.00
2023-05-03T18:45:42.291Z,15.90
2023-05-03T18:48:09.013Z,15.90
2023-05-03T18:50:38.232Z,15.80
2023-05-03T18:53:06.233Z,15.70
2023-05-03T18:55:32.951Z,15.70
2023-05-03T18:57:59.740Z,15.60
2023-05-03T19:00:26.381Z,15.60
2023-05-03T19:02:53.134Z,15.50
2023-05-03T19:05:19.983Z,15.40
2023-05-03T19:07:47.459Z,15.40
2023-05-03T19:10:15.640Z,15.30
2023-05-03T19:12:44.104Z,15.30
2023-05-03T19:15:11.264Z,15.20
2023-05-03T19:17:40.319Z,15.20
2023-05-03T19:20:07.844Z,15.10
2023-05-03T19:22:34.525Z,15.00
2023-05-03T19:25:03.448Z,15.00
2023-05-03T19:27:31.587Z,14.90
2023-05-03T19:29:58.320Z,14.80
2023-05-03T19:32:25.226Z,14.80
2023-05-03T19:34:51.964Z,14.80
2023-05-03T19:37:18.652Z,14.70
2023-05-03T19:39:45.632Z,14.60
2023-05-03T19:42:12.467Z,14.60
2023-05-03T19:44:39.234Z,14.50
2023-05-03T19:47:05.886Z,14.40
2023-05-03T19:49:33.009Z,14.40
2023-05-03T19:51:59.838Z,14.30
2023-05-03T19:54:26.486Z,14.20
2023-05-03T19:56:53.524Z,14.20
2023-05-03T19:59:20.178Z,14.10
2023-05-03T20:01:46.903Z,14.10
2023-05-03T20:04:13.838Z,14.00
2023-05-03T20:06:40.776Z,14.00
2023-05-03T20:09:07.746Z,14.00
2023-05-03T20:11:34.415Z,14.00
2023-05-03T20:14:01.092Z,13.90
2023-05-03T20:16:32.502Z,13.90
2023-05-03T20:18:59.761Z,13.80
2023-05-03T20:21:26.467Z,13.80
2023-05-03T20:23:53.157Z,13.80
2023-05-03T20:26:19.889Z,13.80
2023-05-03T20:28:46.535Z,13.80
2023-05-03T20:31:13.228Z,13.70
2023-05-03T20:33:39.940Z,13.60
2023-05-03T20:36:07.120Z,13.60
2023-05-03T20:38:33.885Z,13.60
2023-05-03T20:41:00.700Z,13.60
2023-05-03T20:43:27.380Z,13.50
2023-05-03T20:45:54.275Z,13.50
2023-05-03T20:48:21.169Z,13.40
2023-05-03T20:50:49.898Z,13.40
2023-05-03T20:53:16.673Z,13.30
2023-05-03T20:55:43.336Z,13.30
2023-05-03T20:58:12.054Z,13.30
2023-05-03T21:00:38.754Z,13.20
2023-05-03T21:03:05.582Z,13.10
2023-05-03T21:05:32.408Z,13.10
2023-05-03T21:07:59.139Z,13.10
2023-05-03T21:10:26.246Z,13.10
2023-05-03T21:12:53.021Z,13.00
2023-05-03T21:15:19.789Z,13.00
2023-05-03T21:17:47.143Z,13.00
2023-05-03T21:20:14.051Z,12.90
2023-05-03T21:22:40.795Z,12.90
2023-05-03T21:25:08.071Z,12.90
2023-05-03T21:27:34.751Z,12.90
2023-05-03T21:30:01.968Z,12.90
2023-05-03T21:32:28.945Z,12.90
2023-05-03T21:34:55.639Z,12.80
2023-05-03T21:37:22.580Z,12.80
2023-05-03T21:40:05.358Z,12.80
2023-05-03T21:42:32.882Z,12.80
2023-05-03T21:44:59.508Z,12.70
2023-05-03T21:47:27.575Z,12.70
2023-05-03T21:49:54.370Z,12.60
2023-05-03T21:52:21.019Z,12.50
2023-05-03T21:54:47.743Z,12.50
2023-05-03T21:57:14.707Z,12.50
2023-05-03T21:59:41.994Z,12.40
2023-05-03T22:02:08.779Z,12.40
2023-05-03T22:04:35.486Z,12.40
2023-05-03T22:07:03.712Z,12.40
2023-05-03T22:09:30.533Z,12.40
2023-05-03T22:11:59.388Z,12.40
2023-05-03T22:14:27.388Z,12.30
2023-05-03T22:16:54.416Z,12.30
2023-05-03T22:19:21.076Z,12.20
2023-05-03T22:21:47.812Z,12.20
2023-05-03T22:24:14.519Z,12.20
2023-05-03T22:26:41.365Z,12.20
2023-05-03T22:29:08.514Z,12.20
2023-05-03T22:31:35.303Z,12.10
2023-05-03T22:34:01.967Z,12.10
2023-05-03T22:36:28.603Z,12.00
2023-05-03T22:39:00.592Z,12.00
2023-05-03T22:41:27.974Z,11.90
2023-05-03T22:43:54.642Z,11.90
2023-05-03T22:46:21.564Z,11.90
2023-05-03T22:48:48.324Z,11.80
2023-05-03T22:51:15.124Z,11.80
2023-05-03T22:53:41.903Z,11.80
2023-05-03T22:56:08.698Z,11.80
2023-05-03T22:58:35.515Z,11.70
2023-05-03T23:01:02.209Z,11.70
2023-05-03T23:03:29.233Z,11.70
2023-05-03T23:05:56.104Z,11.60
2023-05-03T23:08:23.013Z,11.60
2023-05-03T23:10:49.801Z,11.60
2023-05-03T23:13:16.648Z,11.50
2023-05-03T23:15:43.902Z,11.50
2023-05-03T23:18:10.558Z,11.50
2023-05-03T23:20:37.607Z,11.60
2023-05-03T23:23:04.429Z,11.50
2023-05-03T23:25:31.075Z,11.50
2023-05-03T23:27:57.765Z,11.40
2023-05-03T23:30:24.735Z,11.40
2023-05-03T23:32:52.454Z,11.40
2023-05-03T23:35:20.854Z,11.30
2023-05-03T23:37:47.480Z,11.30
2023-05-03T23:40:14.167Z,11.30
2023-05-03T23:42:41.370Z,11.20
2023-05-03T23:45:09.530Z,11.20
2023-05-03T23:47:36.794Z,11.20
2023-05-03T23:50:04.331Z,11.10
2023-05-03T23:52:31.349Z,11.10
2023-05-03T23:54:58.005Z,11.00
2023-05-03T23:57:24.643Z,11.00
2023-05-03T23:59:51.618Z,11.00
